Time;durP1;ratioP1;P1;durP2;ratioP2;P2;SDS_P1;SDS_P2;PMS_P1;PMS_P2;Temp;Humidity;BMP_temperature;BMP_pressure;BME280_temperature;BME280_humidity;BME280_pressure;Samples;Min_cycle;Max_cycle;Signal;HPM_P1;HPM_P2
2024/01/06 00:00:27;;;;;;;;;;;;;;;;;;107719;1251;59569;-81
2024/01/06 00:03:14;;;;;;;;;;;;;;;;;;107643;1250;61648;-81
2024/01/06 00:05:40;;;;;;;;;;;;;;;;;;107625;1249;59773;-80
2024/01/06 00:08:07;;;;;;;;;;;;;;;;;;107643;1250;59807;-80
2024/01/06 00:10:33;;;;;;;;;;;;;;;;;;107609;1251;59546;-80
2024/01/06 00:12:59;;;;;;;;;;;;;;;;;;107239;1251;60843;-80
2024/01/06 00:15:26;;;;;;;;;;;;;;;;;;107192;1251;60799;-80
2024/01/06 00:17:52;;;;;;;;;;;;;;;;;;107201;1251;59927;-80
2024/01/06 00:20:18;;;;;;;;;;;;;;;;;;107230;1251;60967;-80
2024/01/06 00:22:45;;;;;;;;;;;;;;;;;;107226;1250;59679;-80
2024/01/06 00:25:11;;;;;;;;;;;;;;;;;;107213;1251;59262;-80
2024/01/06 00:27:37;;;;;;;;;;;;;;;;;;107225;1251;59745;-80
2024/01/06 00:30:04;;;;;;;;;;;;;;;;;;107126;1250;60920;-81
2024/01/06 00:32:30;;;;;;;;;;;;;;;;;;107173;1250;59788;-80
2024/01/06 00:34:56;;;;;;;;;;;;;;;;;;107141;1250;59256;-80
2024/01/06 00:37:23;;;;;;;;;;;;;;;;;;107155;1250;59594;-80
2024/01/06 00:39:50;;;;;;;;;;;;;;;;;;107167;1250;59805;-80
2024/01/06 00:42:16;;;;;;;;;;;;;;;;;;107112;1250;60747;-80
2024/01/06 00:44:45;;;;;;;;;;;;;;;;;;107117;1250;59765;-80
2024/01/06 00:47:11;;;;;;;;;;;;;;;;;;107088;1250;62371;-80
2024/01/06 00:49:37;;;;;;;;;;;;;;;;;;107128;1250;59760;-80
2024/01/06 00:52:04;;;;;;;;;;;;;;;;;;107573;1250;60878;-80
2024/01/06 00:54:30;;;;;;;;;;;;;;;;;;107673;1250;59806;-81
2024/01/06 00:56:57;;;;;;;;;;;;;;;;;;107717;1250;59813;-80
2024/01/06 00:59:23;;;;;;;;;;;;;;;;;;107758;1251;61019;-80
2024/01/06 01:01:49;;;;;;;;;;;;;;;;;;107711;1251;59838;-80
2024/01/06 01:04:16;;;;;;;;;;;;;;;;;;107648;1251;59412;-79
2024/01/06 01:06:42;;;;;;;;;;;;;;;;;;107136;1251;59827;-80
2024/01/06 01:09:10;;;;;;;;;;;;;;;;;;107099;1251;59878;-80
2024/01/06 01:11:36;;;;;;;;;;;;;;;;;;107172;1249;62508;-80
2024/01/06 01:14:02;;;;;;;;;;;;;;;;;;107175;1251;59793;-80
2024/01/06 01:16:29;;;;;;;;;;;;;;;;;;107163;1251;60892;-80
2024/01/06 01:18:55;;;;;;;;;;;;;;;;;;107154;1251;59886;-80
2024/01/06 01:21:22;;;;;;;;;;;;;;;;;;107191;1253;59268;-80
2024/01/06 01:23:48;;;;;;;;;;;;;;;;;;107170;1251;59721;-80
2024/01/06 01:26:14;;;;;;;;;;;;;;;;;;107649;1251;60822;-80
2024/01/06 01:28:41;;;;;;;;;;;;;;;;;;109740;1251;58934;-80
2024/01/06 01:31:07;;;;;;;;;;;;;;;;;;109756;1250;58857;-80
2024/01/06 01:33:34;;;;;;;;;;;;;;;;;;109769;1250;58883;-80
2024/01/06 01:36:00;;;;;;;;;;;;;;;;;;109754;1251;58976;-80
2024/01/06 01:38:26;;;;;;;;;;;;;;;;;;107881;1250;59225;-80
2024/01/06 01:40:53;;;;;;;;;;;;;;;;;;107806;1250;59874;-81
2024/01/06 01:43:19;;;;;;;;;;;;;;;;;;107713;1250;61797;-80
2024/01/06 01:45:45;;;;;;;;;;;;;;;;;;107830;1250;59767;-80
2024/01/06 01:48:12;;;;;;;;;;;;;;;;;;108109;1250;59267;-80
2024/01/06 01:50:38;;;;;;;;;;;;;;;;;;108417;1250;59810;-80
2024/01/06 01:53:04;;;;;;;;;;;;;;;;;;108510;1249;59371;-80
2024/01/06 01:55:31;;;;;;;;;;;;;;;;;;109577;1252;59052;-80
2024/01/06 01:57:57;;;;;;;;;;;;;;;;;;109672;1251;58872;-80
2024/01/06 02:00:23;;;;;;;;;;;;;;;;;;109715;1251;58845;-80
2024/01/06 02:02:50;;;;;;;;;;;;;;;;;;109428;1251;59076;-80
2024/01/06 02:05:16;;;;;;;;;;;;;;;;;;107879;1254;59727;-80
2024/01/06 02:07:43;;;;;;;;;;;;;;;;;;107909;1251;60301;-80
2024/01/06 02:10:09;;;;;;;;;;;;;;;;;;107750;1251;59795;-80
2024/01/06 02:12:36;;;;;;;;;;;;;;;;;;107738;1253;60735;-80
2024/01/06 02:15:02;;;;;;;;;;;;;;;;;;107049;1253;60022;-80
2024/01/06 02:17:28;;;;;;;;;;;;;;;;;;107031;1253;60344;-80
2024/01/06 02:19:56;;;;;;;;;;;;;;;;;;107056;1253;59767;-80
2024/01/06 02:22:22;;;;;;;;;;;;;;;;;;107052;1253;59426;-80
2024/01/06 02:24:49;;;;;;;;;;;;;;;;;;106997;1251;60338;-80
2024/01/06 02:27:15;;;;;;;;;;;;;;;;;;107212;1251;59819;-80
2024/01/06 02:29:41;;;;;;;;;;;;;;;;;;107043;1251;59879;-80
2024/01/06 02:32:08;;;;;;;;;;;;;;;;;;107019;1253;60919;-80
2024/01/06 02:34:34;;;;;;;;;;;;;;;;;;106988;1251;59906;-80
2024/01/06 02:37:01;;;;;;;;;;;;;;;;;;107072;1253;59889;-80
2024/01/06 02:39:27;;;;;;;;;;;;;;;;;;107051;1253;59280;-80
2024/01/06 02:41:53;;;;;;;;;;;;;;;;;;107083;1250;59862;-80
2024/01/06 02:44:20;;;;;;;;;;;;;;;;;;107097;1250;59821;-80
2024/01/06 02:46:46;;;;;;;;;;;;;;;;;;107083;1250;59989;-80
2024/01/06 02:49:12;;;;;;;;;;;;;;;;;;107139;1250;59886;-80
2024/01/06 02:51:39;;;;;;;;;;;;;;;;;;107134;1250;59711;-80
2024/01/06 02:54:05;;;;;;;;;;;;;;;;;;107174;1251;59927;-79
2024/01/06 02:56:31;;;;;;;;;;;;;;;;;;107292;1253;59863;-80
2024/01/06 02:58:58;;;;;;;;;;;;;;;;;;107172;1251;60902;-80
2024/01/06 03:01:24;;;;;;;;;;;;;;;;;;107170;1250;60895;-80
2024/01/06 03:03:50;;;;;;;;;;;;;;;;;;108241;1249;59769;-79
2024/01/06 03:06:17;;;;;;;;;;;;;;;;;;109656;1250;59199;-79
2024/01/06 03:08:43;;;;;;;;;;;;;;;;;;109701;1250;58878;-79
2024/01/06 03:11:09;;;;;;;;;;;;;;;;;;109691;1250;58867;-79
2024/01/06 03:13:36;;;;;;;;;;;;;;;;;;109681;1249;58902;-79
2024/01/06 03:16:02;;;;;;;;;;;;;;;;;;109695;1250;59030;-80
2024/01/06 03:18:28;;;;;;;;;;;;;;;;;;109663;1250;58885;-79
2024/01/06 03:20:55;;;;;;;;;;;;;;;;;;109228;1250;59023;-79
2024/01/06 03:23:21;;;;;;;;;;;;;;;;;;107147;1250;59755;-80
2024/01/06 03:25:47;;;;;;;;;;;;;;;;;;107107;1254;60512;-80
2024/01/06 03:28:14;;;;;;;;;;;;;;;;;;107067;1250;59844;-79
2024/01/06 03:30:40;;;;;;;;;;;;;;;;;;107118;1250;59884;-79
2024/01/06 03:33:07;;;;;;;;;;;;;;;;;;107111;1250;60819;-79
2024/01/06 03:35:33;;;;;;;;;;;;;;;;;;107581;1249;60736;-80
2024/01/06 03:37:59;;;;;;;;;;;;;;;;;;109682;1254;59118;-80
2024/01/06 03:40:26;;;;;;;;;;;;;;;;;;109689;1250;58969;-80
2024/01/06 03:42:53;;;;;;;;;;;;;;;;;;109645;1250;59050;-80
2024/01/06 03:45:20;;;;;;;;;;;;;;;;;;109704;1250;59148;-80
2024/01/06 03:47:46;;;;;;;;;;;;;;;;;;108810;1250;59757;-79
2024/01/06 03:50:12;;;;;;;;;;;;;;;;;;107134;1250;60723;-80
2024/01/06 03:52:39;;;;;;;;;;;;;;;;;;107142;1250;59812;-80
2024/01/06 03:55:05;;;;;;;;;;;;;;;;;;107243;1251;59730;-80
2024/01/06 03:57:31;;;;;;;;;;;;;;;;;;107183;1251;59795;-80
2024/01/06 03:59:58;;;;;;;;;;;;;;;;;;107133;1251;59671;-80
2024/01/06 04:02:24;;;;;;;;;;;;;;;;;;107253;1253;60820;-80
2024/01/06 04:04:50;;;;;;;;;;;;;;;;;;107101;1251;59832;-80
2024/01/06 04:07:17;;;;;;;;;;;;;;;;;;107167;1251;59828;-80
2024/01/06 04:09:43;;;;;;;;;;;;;;;;;;107221;1251;61063;-80
2024/01/06 04:12:09;;;;;;;;;;;;;;;;;;109351;1251;59613;-80
2024/01/06 04:14:36;;;;;;;;;;;;;;;;;;107449;1253;59241;-80
2024/01/06 04:17:02;;;;;;;;;;;;;;;;;;107195;1249;61042;-80
2024/01/06 04:19:28;;;;;;;;;;;;;;;;;;107155;1251;61261;-79
2024/01/06 04:21:55;;;;;;;;;;;;;;;;;;107225;1251;60867;-79
2024/01/06 04:24:21;;;;;;;;;;;;;;;;;;107186;1251;60875;-79
2024/01/06 04:26:48;;;;;;;;;;;;;;;;;;107066;1249;60219;-81
2024/01/06 04:29:14;;;;;;;;;;;;;;;;;;107196;1252;59935;-80
2024/01/06 04:31:40;;;;;;;;;;;;;;;;;;107176;1251;60899;-80
2024/01/06 04:34:07;;;;;;;;;;;;;;;;;;107187;1251;60703;-80
2024/01/06 04:36:33;;;;;;;;;;;;;;;;;;107190;1251;60797;-79
2024/01/06 04:38:59;;;;;;;;;;;;;;;;;;107248;1253;60063;-80
2024/01/06 04:41:26;;;;;;;;;;;;;;;;;;108615;1250;59225;-80
2024/01/06 04:43:52;;;;;;;;;;;;;;;;;;107801;1250;59173;-79
2024/01/06 04:46:18;;;;;;;;;;;;;;;;;;107120;1250;60933;-79
2024/01/06 04:48:45;;;;;;;;;;;;;;;;;;107100;1250;59708;-80
2024/01/06 04:51:11;;;;;;;;;;;;;;;;;;107138;1253;60463;-79
2024/01/06 04:53:38;;;;;;;;;;;;;;;;;;107130;1251;59770;-80
2024/01/06 04:56:04;;;;;;;;;;;;;;;;;;107160;1251;60919;-80
2024/01/06 04:58:30;;;;;;;;;;;;;;;;;;107150;1251;61409;-80
2024/01/06 05:00:56;;;;;;;;;;;;;;;;;;107091;1251;60790;-79
2024/01/06 05:03:23;;;;;;;;;;;;;;;;;;107108;1249;60929;-79
2024/01/06 05:05:49;;;;;;;;;;;;;;;;;;107127;1251;60354;-79
2024/01/06 05:08:17;;;;;;;;;;;;;;;;;;107145;1251;59937;-80
2024/01/06 05:10:44;;;;;;;;;;;;;;;;;;107173;1251;59918;-80
2024/01/06 05:13:10;;;;;;;;;;;;;;;;;;107294;1253;59825;-80
2024/01/06 05:15:36;;;;;;;;;;;;;;;;;;107223;1253;59811;-79
2024/01/06 05:18:03;;;;;;;;;;;;;;;;;;107250;1251;61134;-79
2024/01/06 05:20:29;;;;;;;;;;;;;;;;;;107256;1251;59727;-80
2024/01/06 05:22:55;;;;;;;;;;;;;;;;;;107307;1251;60669;-81
2024/01/06 05:25:22;;;;;;;;;;;;;;;;;;107367;1251;59813;-80
2024/01/06 05:27:48;;;;;;;;;;;;;;;;;;107364;1252;60874;-80
2024/01/06 05:30:14;;;;;;;;;;;;;;;;;;107315;1251;59860;-80
2024/01/06 05:32:41;;;;;;;;;;;;;;;;;;107410;1251;60856;-80
2024/01/06 05:35:07;;;;;;;;;;;;;;;;;;107247;1250;59759;-81
2024/01/06 05:37:33;;;;;;;;;;;;;;;;;;107143;1251;59877;-80
2024/01/06 05:40:02;;;;;;;;;;;;;;;;;;107224;1251;61017;-80
2024/01/06 05:42:29;;;;;;;;;;;;;;;;;;107206;1253;60427;-79
2024/01/06 05:44:55;;;;;;;;;;;;;;;;;;107155;1251;59805;-79
2024/01/06 05:47:21;;;;;;;;;;;;;;;;;;107219;1249;59734;-80
2024/01/06 05:49:48;;;;;;;;;;;;;;;;;;107188;1254;59171;-80
2024/01/06 05:52:15;;;;;;;;;;;;;;;;;;107245;1251;59899;-79
2024/01/06 05:54:42;;;;;;;;;;;;;;;;;;107147;1253;59798;-79
2024/01/06 05:57:08;;;;;;;;;;;;;;;;;;107188;1250;59212;-80
2024/01/06 05:59:35;;;;;;;;;;;;;;;;;;107166;1250;60746;-79
2024/01/06 06:02:01;;;;;;;;;;;;;;;;;;107157;1250;61076;-80
2024/01/06 06:04:27;;;;;;;;;;;;;;;;;;107138;1250;61113;-80
2024/01/06 06:06:54;;;;;;;;;;;;;;;;;;107150;1253;59792;-79
2024/01/06 06:09:21;;;;;;;;;;;;;;;;;;107055;1253;59759;-79
2024/01/06 06:11:48;;;;;;;;;;;;;;;;;;107649;1250;61614;-79
2024/01/06 06:14:14;;;;;;;;;;;;;;;;;;107159;1253;59805;-80
2024/01/06 06:16:41;;;;;;;;;;;;;;;;;;107111;1253;59842;-80
2024/01/06 06:19:07;;;;;;;;;;;;;;;;;;107080;1250;60839;-79
2024/01/06 06:21:34;;;;;;;;;;;;;;;;;;107174;1250;60900;-79
2024/01/06 06:24:00;;;;;;;;;;;;;;;;;;107013;1252;59859;-80
2024/01/06 06:26:27;;;;;;;;;;;;;;;;;;107141;1253;59732;-80
2024/01/06 06:28:53;;;;;;;;;;;;;;;;;;107073;1253;60866;-80
2024/01/06 06:31:19;;;;;;;;;;;;;;;;;;107032;1255;59906;-79
2024/01/06 06:33:46;;;;;;;;;;;;;;;;;;107064;1250;219583;-80
2024/01/06 06:36:12;;;;;;;;;;;;;;;;;;107153;1253;60724;-80
2024/01/06 06:38:38;;;;;;;;;;;;;;;;;;107126;1251;59903;-79
2024/01/06 06:41:05;;;;;;;;;;;;;;;;;;107109;1253;59803;-79
2024/01/06 06:43:31;;;;;;;;;;;;;;;;;;109635;1250;58847;-79
2024/01/06 06:45:58;;;;;;;;;;;;;;;;;;109638;1251;59061;-80
2024/01/06 06:48:24;;;;;;;;;;;;;;;;;;108686;1253;60848;-81
2024/01/06 06:50:50;;;;;;;;;;;;;;;;;;109676;1250;58927;-81
2024/01/06 06:53:17;;;;;;;;;;;;;;;;;;109599;1250;58812;-80
2024/01/06 06:55:43;;;;;;;;;;;;;;;;;;108683;1253;59827;-81
2024/01/06 06:58:09;;;;;;;;;;;;;;;;;;107690;1254;62113;-81
2024/01/06 07:00:37;;;;;;;;;;;;;;;;;;107693;1251;60876;-80
2024/01/06 07:03:03;;;;;;;;;;;;;;;;;;107716;1251;59787;-81
2024/01/06 07:05:30;;;;;;;;;;;;;;;;;;107601;1251;59805;-80
2024/01/06 07:07:56;;;;;;;;;;;;;;;;;;107686;1253;59611;-81
2024/01/06 07:10:23;;;;;;;;;;;;;;;;;;107700;1249;59818;-81
2024/01/06 07:12:49;;;;;;;;;;;;;;;;;;107728;1252;59792;-81
2024/01/06 07:15:15;;;;;;;;;;;;;;;;;;107701;1251;59828;-80
2024/01/06 07:17:42;;;;;;;;;;;;;;;;;;107648;1249;59294;-81
2024/01/06 07:20:08;;;;;;;;;;;;;;;;;;107687;1251;59909;-81
2024/01/06 07:22:34;;;;;;;;;;;;;;;;;;107645;1251;59810;-81
2024/01/06 07:25:01;;;;;;;;;;;;;;;;;;107597;1253;60844;-81
2024/01/06 07:27:27;;;;;;;;;;;;;;;;;;107712;1251;60801;-81
2024/01/06 07:29:55;;;;;;;;;;;;;;;;;;107646;1253;59917;-80
2024/01/06 07:32:21;;;;;;;;;;;;;;;;;;107750;1253;59781;-81
2024/01/06 07:34:48;;;;;;;;;;;;;;;;;;107646;1251;60816;-81
2024/01/06 07:37:14;;;;;;;;;;;;;;;;;;107622;1251;59808;-80
2024/01/06 07:39:40;;;;;;;;;;;;;;;;;;107552;1250;59752;-80
2024/01/06 07:42:07;;;;;;;;;;;;;;;;;;107628;1253;59705;-80
2024/01/06 07:44:33;;;;;;;;;;;;;;;;;;107621;1250;60845;-80
2024/01/06 07:47:01;;;;;;;;;;;;;;;;;;107717;1253;59830;-81
2024/01/06 07:49:28;;;;;;;;;;;;;;;;;;107666;1252;62871;-80
2024/01/06 07:51:54;;;;;;;;;;;;;;;;;;107787;1251;59075;-80
2024/01/06 07:54:21;;;;;;;;;;;;;;;;;;107803;1251;59886;-80
2024/01/06 07:56:47;;;;;;;;;;;;;;;;;;107756;1251;60928;-81
2024/01/06 07:59:13;;;;;;;;;;;;;;;;;;107706;1251;59831;-81
2024/01/06 08:01:42;;;;;;;;;;;;;;;;;;107741;1251;59798;-81
2024/01/06 08:04:09;;;;;;;;;;;;;;;;;;107791;1250;59727;-81
2024/01/06 08:06:35;;;;;;;;;;;;;;;;;;107774;1250;59805;-80
2024/01/06 08:09:03;;;;;;;;;;;;;;;;;;107606;1251;59762;-80
2024/01/06 08:11:29;;;;;;;;;;;;;;;;;;107745;1251;59888;-80
2024/01/06 08:13:55;;;;;;;;;;;;;;;;;;107767;1251;59823;-80
2024/01/06 08:16:22;;;;;;;;;;;;;;;;;;107798;1251;59794;-80
2024/01/06 08:18:48;;;;;;;;;;;;;;;;;;107736;1251;59582;-80
2024/01/06 08:21:15;;;;;;;;;;;;;;;;;;107795;1249;59888;-81
2024/01/06 08:23:41;;;;;;;;;;;;;;;;;;107715;1249;60883;-81
2024/01/06 08:26:08;;;;;;;;;;;;;;;;;;107715;1250;59482;-80
2024/01/06 08:28:34;;;;;;;;;;;;;;;;;;107768;1250;60733;-80
2024/01/06 08:31:01;;;;;;;;;;;;;;;;;;107658;1251;59799;-81
2024/01/06 08:33:27;;;;;;;;;;;;;;;;;;107690;1251;61012;-81
2024/01/06 08:35:53;;;;;;;;;;;;;;;;;;107723;1251;59782;-81
2024/01/06 08:38:22;;;;;;;;;;;;;;;;;;108109;1250;59766;-81
2024/01/06 08:40:50;;;;;;;;;;;;;;;;;;108019;1251;59757;-81
2024/01/06 08:43:16;;;;;;;;;;;;;;;;;;107657;1251;59822;-82
2024/01/06 08:45:42;;;;;;;;;;;;;;;;;;107580;1251;59680;-81
2024/01/06 08:48:09;;;;;;;;;;;;;;;;;;107564;1251;59806;-81
2024/01/06 08:50:35;;;;;;;;;;;;;;;;;;107560;1251;59689;-81
2024/01/06 08:53:01;;;;;;;;;;;;;;;;;;107595;1251;59331;-80
2024/01/06 08:55:28;;;;;;;;;;;;;;;;;;107572;1251;59881;-81
2024/01/06 08:57:54;;;;;;;;;;;;;;;;;;107668;1253;60906;-81
2024/01/06 09:00:21;;;;;;;;;;;;;;;;;;107627;1252;59824;-80
2024/01/06 09:02:47;;;;;;;;;;;;;;;;;;107712;1251;60936;-81
2024/01/06 09:05:14;;;;;;;;;;;;;;;;;;107725;1251;60935;-80
2024/01/06 09:07:40;;;;;;;;;;;;;;;;;;107201;1251;59756;-79
2024/01/06 09:10:07;;;;;;;;;;;;;;;;;;107186;1253;60891;-79
2024/01/06 09:12:33;;;;;;;;;;;;;;;;;;107115;1250;60955;-79
2024/01/06 09:14:59;;;;;;;;;;;;;;;;;;107137;1251;59888;-80
2024/01/06 09:17:26;;;;;;;;;;;;;;;;;;107085;1251;60854;-80
2024/01/06 09:19:53;;;;;;;;;;;;;;;;;;107179;1252;59782;-80
2024/01/06 09:22:20;;;;;;;;;;;;;;;;;;107203;1252;60692;-79
2024/01/06 09:24:46;;;;;;;;;;;;;;;;;;107156;1251;60873;-80
2024/01/06 09:27:13;;;;;;;;;;;;;;;;;;107175;1251;59786;-79
2024/01/06 09:29:39;;;;;;;;;;;;;;;;;;107129;1252;60934;-80
2024/01/06 09:32:05;;;;;;;;;;;;;;;;;;107212;1251;60854;-80
2024/01/06 09:34:32;;;;;;;;;;;;;;;;;;107141;1251;60353;-80
2024/01/06 09:36:58;;;;;;;;;;;;;;;;;;107137;1251;59920;-80
2024/01/06 09:39:24;;;;;;;;;;;;;;;;;;107150;1251;59775;-80
2024/01/06 09:41:51;;;;;;;;;;;;;;;;;;108141;1251;59176;-80
2024/01/06 09:44:18;;;;;;;;;;;;;;;;;;109642;1249;58869;-80
2024/01/06 09:46:44;;;;;;;;;;;;;;;;;;109658;1250;58828;-80
2024/01/06 09:49:10;;;;;;;;;;;;;;;;;;109669;1251;59129;-80
2024/01/06 09:51:37;;;;;;;;;;;;;;;;;;109680;1250;58886;-80
2024/01/06 09:54:04;;;;;;;;;;;;;;;;;;109720;1250;59209;-80
2024/01/06 09:56:30;;;;;;;;;;;;;;;;;;109744;1250;59175;-79
2024/01/06 09:58:56;;;;;;;;;;;;;;;;;;109769;1250;58995;-80
2024/01/06 10:01:23;;;;;;;;;;;;;;;;;;109765;1252;58975;-80
2024/01/06 10:03:49;;;;;;;;;;;;;;;;;;109762;1251;58834;-80
2024/01/06 10:06:16;;;;;;;;;;;;;;;;;;109753;1253;59150;-80
2024/01/06 10:08:42;;;;;;;;;;;;;;;;;;109742;1251;58913;-80
2024/01/06 10:11:10;;;;;;;;;;;;;;;;;;109715;1250;58935;-80
2024/01/06 10:13:38;;;;;;;;;;;;;;;;;;109757;1251;58847;-80
2024/01/06 10:16:04;;;;;;;;;;;;;;;;;;108516;1253;62648;-79
2024/01/06 10:18:30;;;;;;;;;;;;;;;;;;107195;1251;60778;-80
2024/01/06 10:20:57;;;;;;;;;;;;;;;;;;107174;1251;59904;-80
2024/01/06 10:23:23;;;;;;;;;;;;;;;;;;107131;1251;59745;-79
2024/01/06 10:25:50;;;;;;;;;;;;;;;;;;107246;1251;61938;-80
2024/01/06 10:28:16;;;;;;;;;;;;;;;;;;107154;1251;59736;-79
2024/01/06 10:30:43;;;;;;;;;;;;;;;;;;107094;1251;60914;-80
2024/01/06 10:33:10;;;;;;;;;;;;;;;;;;107137;1251;59785;-79
2024/01/06 10:35:36;;;;;;;;;;;;;;;;;;107251;1251;59832;-79
2024/01/06 10:38:03;;;;;;;;;;;;;;;;;;107606;1250;59744;-80
2024/01/06 10:40:29;;;;;;;;;;;;;;;;;;107730;1253;61813;-80
2024/01/06 10:42:59;;;;;;;;;;;;;;;;;;109264;1251;59153;-80
2024/01/06 10:45:25;;;;;;;;;;;;;;;;;;108117;1249;59920;-80
2024/01/06 10:47:51;;;;;;;;;;;;;;;;;;107178;1249;60735;-81
2024/01/06 10:50:18;;;;;;;;;;;;;;;;;;107147;1250;59753;-80
2024/01/06 10:52:44;;;;;;;;;;;;;;;;;;107079;1250;59897;-80
2024/01/06 10:55:11;;;;;;;;;;;;;;;;;;107152;1251;61320;-80
2024/01/06 10:57:37;;;;;;;;;;;;;;;;;;107151;1250;61788;-80
2024/01/06 11:00:05;;;;;;;;;;;;;;;;;;107180;1251;61861;-80
2024/01/06 11:02:31;;;;;;;;;;;;;;;;;;107187;1250;59749;-80
2024/01/06 11:04:57;;;;;;;;;;;;;;;;;;107272;1250;61550;-80
2024/01/06 11:07:24;;;;;;;;;;;;;;;;;;107187;1251;59919;-80
2024/01/06 11:09:51;;;;;;;;;;;;;;;;;;107110;1251;59811;-80
2024/01/06 11:12:17;;;;;;;;;;;;;;;;;;107116;1251;60794;-80
2024/01/06 11:14:45;;;;;;;;;;;;;;;;;;107143;1249;59767;-80
2024/01/06 11:17:12;;;;;;;;;;;;;;;;;;107237;1251;62149;-80
2024/01/06 11:19:39;;;;;;;;;;;;;;;;;;107201;1251;60780;-80
2024/01/06 11:22:06;;;;;;;;;;;;;;;;;;107221;1249;59991;-80
2024/01/06 11:24:32;;;;;;;;;;;;;;;;;;107120;1254;60877;-79
2024/01/06 11:26:58;;;;;;;;;;;;;;;;;;107199;1251;59767;-79
2024/01/06 11:29:25;;;;;;;;;;;;;;;;;;107113;1253;60848;-80
2024/01/06 11:31:51;;;;;;;;;;;;;;;;;;107227;1253;59878;-80
2024/01/06 11:34:18;;;;;;;;;;;;;;;;;;107168;1251;59922;-80
2024/01/06 11:36:45;;;;;;;;;;;;;;;;;;107159;1251;60740;-80
2024/01/06 11:39:12;;;;;;;;;;;;;;;;;;107184;1251;60737;-80
2024/01/06 11:41:38;;;;;;;;;;;;;;;;;;107207;1250;59796;-80
2024/01/06 11:44:05;;;;;;;;;;;;;;;;;;107147;1253;60927;-80
2024/01/06 11:46:31;;;;;;;;;;;;;;;;;;107128;1249;61019;-80
2024/01/06 11:48:57;;;;;;;;;;;;;;;;;;107086;1251;59889;-79
2024/01/06 11:51:24;;;;;;;;;;;;;;;;;;107110;1250;59476;-80
2024/01/06 11:53:50;;;;;;;;;;;;;;;;;;107168;1250;60790;-80
2024/01/06 11:56:22;;;;;;;;;;;;;;;;;;107209;1251;60296;-80
2024/01/06 11:58:48;;;;;;;;;;;;;;;;;;107146;1251;60858;-80
2024/01/06 12:01:15;;;;;;;;;;;;;;;;;;107148;1253;60925;-80
2024/01/06 12:03:41;;;;;;;;;;;;;;;;;;107217;1250;60930;-80
2024/01/06 12:06:08;;;;;;;;;;;;;;;;;;107160;1250;60852;-80
2024/01/06 12:08:34;;;;;;;;;;;;;;;;;;107213;1251;59725;-79
2024/01/06 12:11:00;;;;;;;;;;;;;;;;;;107193;1251;60833;-79
2024/01/06 12:13:27;;;;;;;;;;;;;;;;;;107199;1251;59772;-80
2024/01/06 12:15:53;;;;;;;;;;;;;;;;;;107237;1251;59797;-79
2024/01/06 12:18:20;;;;;;;;;;;;;;;;;;107240;1250;59928;-80
2024/01/06 12:20:46;;;;;;;;;;;;;;;;;;107165;1251;59821;-80
2024/01/06 12:23:15;;;;;;;;;;;;;;;;;;107214;1251;59758;-80
2024/01/06 12:25:42;;;;;;;;;;;;;;;;;;107136;1251;59698;-80
2024/01/06 12:28:08;;;;;;;;;;;;;;;;;;107126;1250;61038;-80
2024/01/06 12:30:35;;;;;;;;;;;;;;;;;;107170;1251;59880;-79
2024/01/06 12:33:01;;;;;;;;;;;;;;;;;;109758;1250;59001;-80
2024/01/06 12:35:28;;;;;;;;;;;;;;;;;;109594;1250;58819;-80
2024/01/06 12:37:54;;;;;;;;;;;;;;;;;;109789;1249;58890;-79
2024/01/06 12:40:22;;;;;;;;;;;;;;;;;;107730;1250;59124;-79
2024/01/06 12:42:48;;;;;;;;;;;;;;;;;;109707;1250;62813;-81
2024/01/06 12:45:16;;;;;;;;;;;;;;;;;;109703;1249;59305;-80
2024/01/06 12:47:42;;;;;;;;;;;;;;;;;;109676;1249;59097;-80
2024/01/06 12:50:09;;;;;;;;;;;;;;;;;;109654;1249;58901;-80
2024/01/06 12:52:35;;;;;;;;;;;;;;;;;;109685;1249;58834;-80
2024/01/06 12:55:03;;;;;;;;;;;;;;;;;;109741;1250;59093;-80
2024/01/06 12:57:29;;;;;;;;;;;;;;;;;;109598;1250;58901;-80
2024/01/06 12:59:56;;;;;;;;;;;;;;;;;;109775;1250;59039;-80
2024/01/06 13:02:22;;;;;;;;;;;;;;;;;;109759;1249;58968;-80
2024/01/06 13:04:48;;;;;;;;;;;;;;;;;;108183;1250;59370;-80
2024/01/06 13:07:15;;;;;;;;;;;;;;;;;;107160;1251;59814;-80
2024/01/06 13:09:41;;;;;;;;;;;;;;;;;;107189;1251;60918;-80
2024/01/06 13:12:08;;;;;;;;;;;;;;;;;;107192;1250;59908;-80
2024/01/06 13:14:35;;;;;;;;;;;;;;;;;;107269;1251;60867;-80
2024/01/06 13:17:02;;;;;;;;;;;;;;;;;;107143;1250;61094;-80
2024/01/06 13:19:28;;;;;;;;;;;;;;;;;;107186;1251;61591;-81
2024/01/06 13:21:55;;;;;;;;;;;;;;;;;;107744;1252;60649;-80
2024/01/06 13:24:21;;;;;;;;;;;;;;;;;;107773;1250;60572;-80
2024/01/06 13:26:48;;;;;;;;;;;;;;;;;;107750;1249;60967;-80
2024/01/06 13:29:14;;;;;;;;;;;;;;;;;;107811;1251;60679;-80
2024/01/06 13:31:40;;;;;;;;;;;;;;;;;;107373;1250;62139;-81
2024/01/06 13:34:07;;;;;;;;;;;;;;;;;;107238;1251;59844;-81
2024/01/06 13:36:33;;;;;;;;;;;;;;;;;;107270;1251;59909;-81
2024/01/06 13:38:59;;;;;;;;;;;;;;;;;;107304;1253;60939;-81
2024/01/06 13:41:26;;;;;;;;;;;;;;;;;;107240;1251;59409;-80
2024/01/06 13:43:54;;;;;;;;;;;;;;;;;;107116;1250;59182;-81
2024/01/06 13:46:20;;;;;;;;;;;;;;;;;;107138;1250;61347;-80
2024/01/06 13:48:47;;;;;;;;;;;;;;;;;;107057;1250;59808;-82
2024/01/06 13:51:13;;;;;;;;;;;;;;;;;;106970;1250;59624;-81
2024/01/06 13:53:39;;;;;;;;;;;;;;;;;;107054;1251;59839;-80
2024/01/06 13:56:06;;;;;;;;;;;;;;;;;;107156;1250;59862;-80
2024/01/06 13:58:32;;;;;;;;;;;;;;;;;;107095;1251;59855;-79
2024/01/06 14:00:59;;;;;;;;;;;;;;;;;;107200;1251;59895;-81
2024/01/06 14:03:25;;;;;;;;;;;;;;;;;;107186;1250;59802;-80
2024/01/06 14:05:53;;;;;;;;;;;;;;;;;;107172;1251;59814;-80
2024/01/06 14:08:19;;;;;;;;;;;;;;;;;;107064;1251;62855;-80
2024/01/06 14:10:46;;;;;;;;;;;;;;;;;;107187;1250;60684;-80
2024/01/06 14:13:12;;;;;;;;;;;;;;;;;;107246;1251;59245;-80
2024/01/06 14:15:39;;;;;;;;;;;;;;;;;;107225;1250;60986;-80
2024/01/06 14:18:06;;;;;;;;;;;;;;;;;;107203;1251;60835;-80
2024/01/06 14:20:37;;;;;;;;;;;;;;;;;;107289;1251;59838;-80
2024/01/06 14:23:04;;;;;;;;;;;;;;;;;;107019;1251;60279;-80
2024/01/06 14:25:30;;;;;;;;;;;;;;;;;;107198;1251;60611;-80
2024/01/06 14:27:56;;;;;;;;;;;;;;;;;;107726;1250;59283;-80
2024/01/06 14:30:23;;;;;;;;;;;;;;;;;;109793;1249;58903;-80
2024/01/06 14:32:50;;;;;;;;;;;;;;;;;;109786;1250;60098;-80
2024/01/06 14:35:17;;;;;;;;;;;;;;;;;;109432;1251;59228;-80
2024/01/06 14:37:47;;;;;;;;;;;;;;;;;;109621;1250;59632;-80
2024/01/06 14:40:13;;;;;;;;;;;;;;;;;;108357;1251;59565;-79
2024/01/06 14:42:40;;;;;;;;;;;;;;;;;;109703;1249;58971;-80
2024/01/06 14:45:08;;;;;;;;;;;;;;;;;;109354;1250;58949;-79
2024/01/06 14:47:34;;;;;;;;;;;;;;;;;;107057;1250;59768;-79
2024/01/06 14:50:00;;;;;;;;;;;;;;;;;;107060;1250;59877;-79
2024/01/06 14:52:27;;;;;;;;;;;;;;;;;;107091;1249;60895;-79
2024/01/06 14:54:54;;;;;;;;;;;;;;;;;;107119;1251;59440;-80
2024/01/06 14:57:20;;;;;;;;;;;;;;;;;;107199;1250;59817;-79
2024/01/06 14:59:46;;;;;;;;;;;;;;;;;;107168;1251;59887;-80
2024/01/06 15:02:13;;;;;;;;;;;;;;;;;;107153;1250;59814;-79
2024/01/06 15:04:39;;;;;;;;;;;;;;;;;;107140;1253;60727;-79
2024/01/06 15:07:06;;;;;;;;;;;;;;;;;;107171;1251;59806;-80
2024/01/06 15:09:32;;;;;;;;;;;;;;;;;;107127;1251;59829;-79
2024/01/06 15:11:58;;;;;;;;;;;;;;;;;;107114;1251;59830;-80
2024/01/06 15:14:25;;;;;;;;;;;;;;;;;;107248;1251;59781;-79
2024/01/06 15:16:51;;;;;;;;;;;;;;;;;;107185;1249;60860;-79
2024/01/06 15:19:18;;;;;;;;;;;;;;;;;;107134;1249;60909;-79
2024/01/06 15:21:47;;;;;;;;;;;;;;;;;;107100;1250;59812;-80
2024/01/06 15:24:14;;;;;;;;;;;;;;;;;;107029;1249;61056;-79
2024/01/06 15:26:40;;;;;;;;;;;;;;;;;;107070;1253;60386;-79
2024/01/06 15:29:07;;;;;;;;;;;;;;;;;;107014;1250;60972;-79
2024/01/06 15:31:33;;;;;;;;;;;;;;;;;;107145;1250;60732;-79
2024/01/06 15:34:00;;;;;;;;;;;;;;;;;;107130;1250;61141;-79
2024/01/06 15:36:26;;;;;;;;;;;;;;;;;;107142;1253;59886;-79
2024/01/06 15:38:52;;;;;;;;;;;;;;;;;;107137;1250;59834;-79
2024/01/06 15:41:18;;;;;;;;;;;;;;;;;;107039;1249;61026;-79
2024/01/06 15:43:45;;;;;;;;;;;;;;;;;;107088;1250;59807;-79
2024/01/06 15:46:11;;;;;;;;;;;;;;;;;;107118;1250;60901;-79
2024/01/06 15:48:38;;;;;;;;;;;;;;;;;;107082;1249;59821;-78
2024/01/06 15:51:04;;;;;;;;;;;;;;;;;;107081;1250;59902;-79
2024/01/06 15:53:30;;;;;;;;;;;;;;;;;;107148;1251;62110;-79
2024/01/06 15:55:57;;;;;;;;;;;;;;;;;;107255;1251;59829;-79
2024/01/06 15:58:23;;;;;;;;;;;;;;;;;;107150;1251;59230;-79
2024/01/06 16:00:50;;;;;;;;;;;;;;;;;;107204;1253;61004;-79
2024/01/06 16:03:16;;;;;;;;;;;;;;;;;;107180;1249;60738;-81
2024/01/06 16:05:43;;;;;;;;;;;;;;;;;;107773;1250;59895;-81
2024/01/06 16:08:09;;;;;;;;;;;;;;;;;;107794;1250;59849;-81
2024/01/06 16:10:35;;;;;;;;;;;;;;;;;;107736;1251;60878;-81
2024/01/06 16:13:02;;;;;;;;;;;;;;;;;;107693;1251;60867;-81
2024/01/06 16:15:29;;;;;;;;;;;;;;;;;;107881;1250;60984;-81
2024/01/06 16:17:55;;;;;;;;;;;;;;;;;;107717;1250;62196;-81
2024/01/06 16:20:22;;;;;;;;;;;;;;;;;;107681;1251;59653;-81
2024/01/06 16:22:50;;;;;;;;;;;;;;;;;;107718;1250;59822;-81